Eupen, Belgium
Current Conditions -  °F | °C
As of 1:25 PM on Saturday 25 Oct 2014 (Local Time) from EBLB Reporting Station
Overcast Overcast  
Wind Chill: 50°   Ceiling: 200
Heat Index: 50°   Visibility: 0.21mi
Dew Point: 50°   Wind: 6mph
Humidity: 100%   Direction: 220°SW
Pressure: 30.12"   Gusts: NA
Location:  50.63°N, 6.04°E
Report Text: EBLB 251125Z AUTO 22005KT 0350 VV002/// 10/10 Q1020 RED
Loading
Personal Weather Stations






























Interactive Weather Map
Tropical Storm Tracking
New forecast layout! Learn more

10-Day Weather Forecast

Advertisements
Track Severe Weather on mobile